createdAt,value
2023-03-04T00:02:00.770Z,95365.06
2023-03-04T00:04:29.183Z,95346.50
2023-03-04T00:06:57.424Z,95355.38
2023-03-04T00:09:25.767Z,95261.41
2023-03-04T00:11:54.119Z,95370.78
2023-03-04T00:14:23.050Z,95367.25
2023-03-04T00:16:51.264Z,95364.09
2023-03-04T00:19:20.987Z,95367.47
2023-03-04T00:21:49.284Z,95369.16
2023-03-04T00:24:17.575Z,95277.28
2023-03-04T00:26:46.654Z,95344.31
2023-03-04T00:29:14.955Z,95297.16
2023-03-04T00:31:43.244Z,95334.47
2023-03-04T00:34:11.695Z,95191.28
2023-03-04T00:36:41.345Z,95352.59
2023-03-04T00:39:09.744Z,95254.75
2023-03-04T00:41:38.145Z,95202.50
2023-03-04T00:44:06.721Z,95338.06
2023-03-04T00:46:35.075Z,95277.56
2023-03-04T00:49:03.453Z,95333.81
2023-03-04T00:51:31.737Z,95154.53
2023-03-04T00:54:01.480Z,95317.56
2023-03-04T00:56:29.881Z,95196.84
2023-03-04T00:58:58.279Z,95337.53
2023-03-04T01:01:26.569Z,95336.84
2023-03-04T01:03:54.927Z,95136.34
2023-03-04T01:06:23.135Z,95275.06
2023-03-04T01:08:51.420Z,95330.09
2023-03-04T01:11:21.189Z,95323.56
2023-03-04T01:13:49.790Z,95321.16
2023-03-04T01:16:18.046Z,95176.03
2023-03-04T01:18:47.670Z,95317.31
2023-03-04T01:21:15.995Z,95288.53
2023-03-04T01:23:44.297Z,95316.59
2023-03-04T01:26:12.651Z,95315.34
2023-03-04T01:28:42.354Z,95305.53
2023-03-04T01:31:10.828Z,95215.03
2023-03-04T01:33:39.157Z,95275.16
2023-03-04T01:36:08.088Z,95268.81
2023-03-04T01:38:36.450Z,95273.56
2023-03-04T01:41:04.795Z,95312.09
2023-03-04T01:43:33.406Z,95305.13
2023-03-04T01:46:03.750Z,95322.78
2023-03-04T01:48:36.741Z,95293.16
2023-03-04T01:51:05.954Z,95294.13
2023-03-04T01:53:34.811Z,95298.19
2023-03-04T01:56:05.902Z,95288.94
2023-03-04T01:58:34.504Z,95285.25
2023-03-04T02:01:04.236Z,95288.13
2023-03-04T02:03:32.504Z,95289.06
2023-03-04T02:06:00.990Z,95201.00
2023-03-04T02:08:29.379Z,95281.72
2023-03-04T02:10:57.927Z,95234.25
2023-03-04T02:13:26.723Z,95283.28
2023-03-04T02:15:55.034Z,95289.75
2023-03-04T02:18:26.120Z,95286.81
2023-03-04T02:21:04.755Z,95099.88
2023-03-04T02:23:40.787Z,95286.16
2023-03-04T02:26:16.912Z,95201.28
2023-03-04T02:28:45.794Z,95263.16
2023-03-04T02:31:24.947Z,95222.56
2023-03-04T02:33:55.359Z,95292.31
2023-03-04T02:36:24.794Z,95296.59
2023-03-04T02:38:54.431Z,95270.94
2023-03-04T02:41:26.617Z,95290.50
2023-03-04T02:43:56.713Z,95291.91
2023-03-04T02:46:25.136Z,95281.75
2023-03-04T02:48:54.069Z,95291.47
2023-03-04T02:51:22.506Z,95275.38
2023-03-04T02:53:50.993Z,95272.41
2023-03-04T02:56:19.229Z,95235.81
2023-03-04T02:58:48.951Z,95200.94
2023-03-04T03:01:17.264Z,95312.53
2023-03-04T03:03:45.488Z,95277.59
2023-03-04T03:06:13.852Z,95249.53
2023-03-04T03:08:42.270Z,95091.28
2023-03-04T03:11:10.689Z,95282.00
2023-03-04T03:13:38.988Z,95236.59
2023-03-04T03:16:08.962Z,95273.13
2023-03-04T03:18:37.200Z,95273.09
2023-03-04T03:21:05.780Z,95281.66
2023-03-04T03:23:34.121Z,95128.34
2023-03-04T03:26:02.636Z,95288.13
2023-03-04T03:28:31.016Z,95254.22
2023-03-04T03:31:00.277Z,95278.63
2023-03-04T03:33:30.147Z,95291.66
2023-03-04T03:35:58.543Z,95301.19
2023-03-04T03:38:26.924Z,95297.63
2023-03-04T03:40:55.296Z,95297.22
2023-03-04T03:43:23.608Z,95303.13
2023-03-04T03:45:52.212Z,95224.66
2023-03-04T03:48:20.577Z,95303.44
2023-03-04T03:50:50.251Z,95307.72
2023-03-04T03:53:18.601Z,95310.94
2023-03-04T03:55:46.893Z,95309.66
2023-03-04T03:58:15.266Z,95176.84
2023-03-04T04:00:43.600Z,95316.13
2023-03-04T04:03:15.341Z,95311.16
2023-03-04T04:05:43.683Z,95318.81
2023-03-04T04:08:14.830Z,95309.34
2023-03-04T04:10:43.300Z,95239.44
2023-03-04T04:13:12.152Z,95317.59
2023-03-04T04:15:40.594Z,95304.69
2023-03-04T04:18:09.679Z,95304.38
2023-03-04T04:20:38.193Z,95319.34
2023-03-04T04:23:06.477Z,95316.47
2023-03-04T04:25:53.341Z,95316.56
2023-03-04T04:28:21.601Z,95316.25
2023-03-04T04:30:50.041Z,95249.34
2023-03-04T04:33:18.429Z,95323.06
2023-03-04T04:35:46.694Z,95319.41
2023-03-04T04:38:14.958Z,95289.97
2023-03-04T04:40:44.813Z,95320.69
2023-03-04T04:43:13.074Z,95298.91
2023-03-04T04:45:41.395Z,95218.16
2023-03-04T04:48:09.762Z,95312.19
2023-03-04T04:50:38.094Z,95140.38
2023-03-04T04:53:06.380Z,95326.41
2023-03-04T04:55:36.061Z,95322.78
2023-03-04T04:58:07.175Z,95313.16
2023-03-04T05:00:35.604Z,95324.06
2023-03-04T05:03:04.032Z,95308.56
2023-03-04T05:05:32.358Z,95323.69
2023-03-04T05:08:00.625Z,95319.03
2023-03-04T05:10:29.140Z,95157.69
2023-03-04T05:12:57.533Z,95327.28
2023-03-04T05:15:27.193Z,95175.34
2023-03-04T05:17:55.546Z,95320.94
2023-03-04T05:20:25.864Z,95170.94
2023-03-04T05:22:54.271Z,95292.03
2023-03-04T05:25:22.654Z,95320.59
2023-03-04T05:27:51.031Z,95193.47
2023-03-04T05:30:19.672Z,95305.41
2023-03-04T05:32:50.563Z,95284.19
2023-03-04T05:35:18.988Z,95265.88
2023-03-04T05:37:47.410Z,95274.88
2023-03-04T05:40:15.836Z,95316.03
2023-03-04T05:42:44.059Z,95258.28
2023-03-04T05:45:13.157Z,95263.53
2023-03-04T05:47:41.479Z,95319.25
2023-03-04T05:50:12.720Z,95244.88
2023-03-04T05:52:41.143Z,95251.41
2023-03-04T05:55:10.590Z,95320.03
2023-03-04T05:57:38.964Z,95284.22
2023-03-04T06:00:09.568Z,95318.66
2023-03-04T06:02:38.266Z,95323.50
2023-03-04T06:05:07.586Z,95325.69
2023-03-04T06:07:37.949Z,95323.50
2023-03-04T06:10:08.034Z,95324.72
2023-03-04T06:12:36.373Z,95206.28
2023-03-04T06:15:06.249Z,95320.81
2023-03-04T06:17:34.648Z,95326.09
2023-03-04T06:20:03.020Z,95124.63
2023-03-04T06:22:31.293Z,95106.22
2023-03-04T06:25:01.074Z,94592.72
2023-03-04T06:27:29.356Z,95320.81
2023-03-04T06:29:57.756Z,95323.53
2023-03-04T06:32:29.334Z,95327.09
2023-03-04T06:34:57.804Z,95325.34
2023-03-04T06:37:26.313Z,95330.41
2023-03-04T06:39:55.017Z,95300.47
2023-03-04T06:42:24.694Z,95289.25
2023-03-04T06:44:52.955Z,95134.47
2023-03-04T06:47:21.338Z,94672.56
2023-03-04T06:49:49.602Z,95334.19
2023-03-04T06:52:17.949Z,95198.19
2023-03-04T06:54:46.292Z,95292.97
2023-03-04T06:57:14.847Z,95331.88
2023-03-04T06:59:44.544Z,95333.09
2023-03-04T07:02:13.665Z,95258.31
2023-03-04T07:04:42.224Z,95286.09
2023-03-04T07:07:10.612Z,95341.22
2023-03-04T07:09:39.054Z,95336.84
2023-03-04T07:12:07.584Z,95315.94
2023-03-04T07:14:36.113Z,95326.81
2023-03-04T07:17:06.004Z,95328.97
2023-03-04T07:19:34.517Z,95340.66
2023-03-04T07:22:03.271Z,95238.88
2023-03-04T07:24:32.470Z,95338.53
2023-03-04T07:27:01.102Z,95336.09
2023-03-04T07:29:29.404Z,95332.13
2023-03-04T07:31:57.858Z,95342.00
2023-03-04T07:34:27.606Z,95340.38
2023-03-04T07:36:59.081Z,95322.28
2023-03-04T07:39:27.514Z,95309.50
2023-03-04T07:41:55.792Z,95336.03
2023-03-04T07:44:24.394Z,95319.38
2023-03-04T07:46:52.725Z,95297.69
2023-03-04T07:49:21.355Z,95294.25
2023-03-04T07:51:51.119Z,95345.88
2023-03-04T07:54:20.379Z,95347.19
2023-03-04T07:56:51.522Z,95343.28
2023-03-04T07:59:19.798Z,95346.47
2023-03-04T08:01:48.150Z,95403.09
2023-03-04T08:04:16.558Z,95143.66
2023-03-04T08:06:45.040Z,95343.81
2023-03-04T08:09:14.851Z,95340.09
2023-03-04T08:11:43.623Z,95341.72
2023-03-04T08:14:12.967Z,95218.38
2023-03-04T08:16:41.711Z,95348.09
2023-03-04T08:19:10.698Z,95173.09
2023-03-04T08:21:39.092Z,95349.16
2023-03-04T08:24:09.379Z,95348.03
2023-03-04T08:26:42.126Z,95161.09
2023-03-04T08:29:12.591Z,95330.28
2023-03-04T08:31:41.182Z,95335.59
2023-03-04T08:34:10.714Z,95331.31
2023-03-04T08:36:38.990Z,95338.41
2023-03-04T08:39:07.521Z,95249.06
2023-03-04T08:41:36.646Z,95340.34
2023-03-04T08:44:08.376Z,95339.56
2023-03-04T08:46:36.658Z,95333.25
2023-03-04T08:49:05.008Z,95273.16
2023-03-04T08:51:33.333Z,95308.91
2023-03-04T08:54:01.610Z,95332.72
2023-03-04T08:56:29.937Z,95293.53
2023-03-04T08:58:58.407Z,95244.03
2023-03-04T09:01:28.420Z,95319.91
2023-03-04T09:03:56.773Z,95314.72
2023-03-04T09:06:25.228Z,95316.69
2023-03-04T09:08:53.458Z,95258.25
2023-03-04T09:11:21.838Z,95290.22
2023-03-04T09:13:51.415Z,95269.34
2023-03-04T09:16:19.798Z,95292.78
2023-03-04T09:18:49.732Z,95313.22
2023-03-04T09:21:18.232Z,95313.94
2023-03-04T09:23:46.489Z,95298.13
2023-03-04T09:26:16.888Z,95205.19
2023-03-04T09:28:45.291Z,95306.53
2023-03-04T09:31:14.505Z,95290.81
2023-03-04T09:33:43.471Z,95239.88
2023-03-04T09:36:14.749Z,95308.72
2023-03-04T09:38:43.708Z,95299.00
2023-03-04T09:41:18.455Z,95297.00
2023-03-04T09:43:48.023Z,95284.03
2023-03-04T09:46:20.452Z,95252.22
2023-03-04T09:48:51.461Z,95281.97
2023-03-04T09:51:24.273Z,95289.31
2023-03-04T09:54:06.873Z,95298.75
2023-03-04T09:56:36.554Z,95142.81
2023-03-04T09:59:16.569Z,95279.69
2023-03-04T10:01:50.982Z,95265.59
2023-03-04T10:04:26.945Z,95259.25
2023-03-04T10:06:57.507Z,95277.59
2023-03-04T10:09:29.825Z,95261.50
2023-03-04T10:12:04.282Z,95264.34
2023-03-04T10:14:38.878Z,95246.59
2023-03-04T10:17:16.883Z,95241.41
2023-03-04T10:19:58.236Z,95253.47
2023-03-04T10:22:34.526Z,95095.09
2023-03-04T10:25:17.503Z,95242.44
2023-03-04T10:27:51.651Z,95194.69
2023-03-04T10:30:31.713Z,95247.84
2023-03-04T10:33:00.122Z,95241.97
2023-03-04T10:35:38.020Z,95229.22
2023-03-04T10:38:08.950Z,95225.41
2023-03-04T10:40:40.416Z,95231.56
2023-03-04T10:43:16.704Z,95238.63
2023-03-04T10:45:45.710Z,95237.50
2023-03-04T10:48:22.754Z,95241.72
2023-03-04T10:50:51.283Z,95225.09
2023-03-04T10:53:33.632Z,95229.00
2023-03-04T10:56:03.027Z,95224.72
2023-03-04T10:58:31.688Z,95227.50
2023-03-04T11:01:05.901Z,95218.91
2023-03-04T11:03:37.050Z,95213.78
2023-03-04T11:06:07.870Z,95205.72
2023-03-04T11:08:37.603Z,95195.53
2023-03-04T11:11:22.473Z,95195.72
2023-03-04T11:13:57.997Z,95194.22
2023-03-04T11:16:29.022Z,95185.50
2023-03-04T11:19:01.794Z,95181.50
2023-03-04T11:21:33.009Z,95186.16
2023-03-04T11:24:05.047Z,95180.25
2023-03-04T11:26:40.804Z,95168.69
2023-03-04T11:29:15.644Z,95168.97
2023-03-04T11:31:51.071Z,95157.72
2023-03-04T11:34:35.733Z,95162.25
2023-03-04T11:37:07.898Z,95156.13
2023-03-04T11:39:39.848Z,95160.91
2023-03-04T11:42:18.599Z,95156.94
2023-03-04T11:44:47.013Z,95136.66
2023-03-04T11:47:29.259Z,95156.56
2023-03-04T11:50:39.295Z,95131.34
2023-03-04T11:53:35.304Z,95134.75
2023-03-04T11:56:23.006Z,95104.16
2023-03-04T11:59:25.464Z,95146.03
2023-03-04T12:02:05.537Z,95139.81
2023-03-04T12:04:52.491Z,95132.47
2023-03-04T12:07:39.286Z,95100.28
2023-03-04T12:10:21.881Z,95145.38
2023-03-04T12:13:19.341Z,95136.13
2023-03-04T12:15:56.743Z,95139.06
2023-03-04T12:18:42.063Z,95133.00
2023-03-04T12:21:21.107Z,95126.06
2023-03-04T12:24:21.391Z,95112.88
2023-03-04T12:26:54.993Z,95135.00
2023-03-04T12:29:35.568Z,95123.47
2023-03-04T12:32:12.952Z,95115.53
2023-03-04T12:34:56.290Z,95122.28
2023-03-04T12:37:47.712Z,95117.31
2023-03-04T12:40:37.545Z,95120.13
2023-03-04T12:43:36.250Z,95118.50
2023-03-04T12:46:20.007Z,95113.59
2023-03-04T12:48:58.266Z,95116.88
2023-03-04T12:51:34.091Z,95116.03
2023-03-04T12:54:19.357Z,95117.13
2023-03-04T12:56:53.376Z,95111.59
2023-03-04T12:59:25.082Z,95105.66
2023-03-04T13:02:07.225Z,95106.53
2023-03-04T13:04:51.224Z,95108.47
2023-03-04T13:07:29.362Z,95096.69
2023-03-04T13:10:02.767Z,95093.97
2023-03-04T13:12:48.678Z,95104.25
2023-03-04T13:15:31.020Z,95092.09
2023-03-04T13:18:02.902Z,95085.41
2023-03-04T13:20:38.439Z,95080.75
2023-03-04T13:23:27.220Z,95083.88
2023-03-04T13:26:33.106Z,95070.69
2023-03-04T13:29:35.188Z,95072.69
2023-03-04T13:32:05.543Z,95069.97
2023-03-04T13:34:46.742Z,95064.31
2023-03-04T13:37:34.044Z,95050.72
2023-03-04T13:40:36.920Z,95054.28
2023-03-04T13:43:27.277Z,95051.03
2023-03-04T13:45:56.548Z,94994.97
2023-03-04T13:48:36.602Z,95019.06
2023-03-04T13:51:28.645Z,95047.91
2023-03-04T13:54:08.180Z,95041.91
2023-03-04T13:56:38.050Z,95000.66
2023-03-04T13:59:29.738Z,95031.72
2023-03-04T14:02:04.056Z,95018.91
2023-03-04T14:04:35.615Z,95024.72
2023-03-04T14:07:20.843Z,95026.69
2023-03-04T14:09:57.239Z,95026.38
2023-03-04T14:12:27.659Z,95011.28
2023-03-04T14:14:58.625Z,94948.97
2023-03-04T14:17:29.892Z,95012.50
2023-03-04T14:19:58.530Z,95007.56
2023-03-04T14:22:30.974Z,95019.03
2023-03-04T14:25:02.072Z,95018.97
2023-03-04T14:27:33.211Z,95010.72
2023-03-04T14:30:03.541Z,94941.69
2023-03-04T14:32:32.491Z,94999.94
2023-03-04T14:35:04.816Z,95009.69
2023-03-04T14:37:43.760Z,95001.06
2023-03-04T14:40:21.350Z,94979.31
2023-03-04T14:42:50.745Z,94993.25
2023-03-04T14:45:19.954Z,94996.47
2023-03-04T14:47:49.254Z,94998.38
2023-03-04T14:50:19.760Z,94988.81
2023-03-04T14:52:52.202Z,94999.75
2023-03-04T14:55:24.853Z,94998.78
2023-03-04T14:57:58.633Z,94972.94
2023-03-04T15:00:32.974Z,94983.88
2023-03-04T15:03:03.482Z,94938.13
2023-03-04T15:05:34.732Z,94982.78
2023-03-04T15:08:07.077Z,94979.50
2023-03-04T15:10:38.026Z,94979.78
2023-03-04T15:13:08.436Z,94983.97
2023-03-04T15:15:41.030Z,94977.53
2023-03-04T15:18:26.251Z,94983.63
2023-03-04T15:20:56.475Z,94966.59
2023-03-04T15:23:27.181Z,94974.63
2023-03-04T15:25:57.305Z,94959.34
2023-03-04T15:28:26.844Z,94929.41
2023-03-04T15:30:56.455Z,94977.91
2023-03-04T15:33:25.907Z,94975.84
2023-03-04T15:35:58.161Z,94975.13
2023-03-04T15:38:28.498Z,94971.34
2023-03-04T15:40:58.531Z,94965.50
2023-03-04T15:43:26.986Z,94970.22
2023-03-04T15:45:55.322Z,94937.34
2023-03-04T15:48:24.020Z,94972.22
2023-03-04T15:50:58.946Z,94971.25
2023-03-04T15:53:34.263Z,94968.94
2023-03-04T15:56:03.534Z,94956.44
2023-03-04T15:58:35.157Z,94887.31
2023-03-04T16:01:03.932Z,94886.09
2023-03-04T16:03:32.517Z,94964.91
2023-03-04T16:06:00.906Z,94971.97
2023-03-04T16:08:30.679Z,94963.84
2023-03-04T16:10:58.950Z,94975.03
2023-03-04T16:13:27.218Z,94969.09
2023-03-04T16:15:55.705Z,94940.22
2023-03-04T16:18:24.297Z,94978.47
2023-03-04T16:20:53.227Z,94943.59
2023-03-04T16:23:24.521Z,94974.69
2023-03-04T16:25:59.742Z,94963.41
2023-03-04T16:28:28.105Z,94973.91
2023-03-04T16:30:56.416Z,94926.16
2023-03-04T16:33:24.791Z,94974.78
2023-03-04T16:35:53.241Z,94991.06
2023-03-04T16:38:28.253Z,94984.19
2023-03-04T16:40:59.263Z,94992.03
2023-03-04T16:43:27.546Z,94952.53
2023-03-04T16:45:56.230Z,94836.75
2023-03-04T16:48:24.519Z,94833.53
2023-03-04T16:50:52.760Z,94957.06
2023-03-04T16:53:30.506Z,94905.78
2023-03-04T16:56:05.347Z,94986.38
2023-03-04T16:58:33.764Z,94913.38
2023-03-04T17:01:02.534Z,94994.78
2023-03-04T17:03:31.371Z,94949.28
2023-03-04T17:05:59.858Z,94912.97
2023-03-04T17:08:28.150Z,94868.06
2023-03-04T17:10:56.472Z,94984.72
2023-03-04T17:13:26.205Z,94984.63
2023-03-04T17:15:54.495Z,94822.72
2023-03-04T17:18:22.752Z,94966.88
2023-03-04T17:20:51.048Z,94996.75
2023-03-04T17:23:19.320Z,94998.97
2023-03-04T17:25:47.654Z,95016.72
2023-03-04T17:28:16.082Z,94995.94
2023-03-04T17:30:45.783Z,94995.75
2023-03-04T17:33:14.071Z,94863.19
2023-03-04T17:35:42.391Z,94949.25
2023-03-04T17:38:10.651Z,94972.81
2023-03-04T17:40:38.944Z,94955.81
2023-03-04T17:43:11.600Z,94950.22
2023-03-04T17:45:40.092Z,95001.22
2023-03-04T17:48:15.090Z,94985.34
2023-03-04T17:50:50.055Z,94943.63
2023-03-04T17:53:18.841Z,94959.84
2023-03-04T17:55:51.454Z,94946.75
2023-03-04T17:58:20.537Z,94984.09
2023-03-04T18:00:49.702Z,95000.63
2023-03-04T18:03:19.684Z,94852.09
2023-03-04T18:05:48.069Z,94965.66
2023-03-04T18:08:16.402Z,94991.28
2023-03-04T18:10:44.997Z,94921.66
2023-03-04T18:13:13.375Z,94946.44
2023-03-04T18:15:41.817Z,94958.75
2023-03-04T18:18:10.124Z,94938.97
2023-03-04T18:20:39.791Z,94923.00
2023-03-04T18:23:08.256Z,94979.06
2023-03-04T18:25:37.000Z,95001.88
2023-03-04T18:28:05.760Z,94656.78
2023-03-04T18:30:34.137Z,94983.59
2023-03-04T18:33:02.999Z,95007.66
2023-03-04T18:35:37.507Z,94978.22
2023-03-04T18:38:07.335Z,94964.91
2023-03-04T18:40:35.708Z,94944.00
2023-03-04T18:43:04.752Z,94964.38
2023-03-04T18:45:33.781Z,94993.75
2023-03-04T18:48:02.135Z,94988.84
2023-03-04T18:50:31.970Z,94999.88
2023-03-04T18:53:16.065Z,94996.34
2023-03-04T18:55:44.858Z,94991.31
2023-03-04T18:58:26.340Z,94994.41
2023-03-04T19:00:56.789Z,94908.19
2023-03-04T19:03:26.210Z,94989.03
2023-03-04T19:05:57.272Z,94988.25
2023-03-04T19:08:32.320Z,94994.19
2023-03-04T19:11:00.842Z,94652.19
2023-03-04T19:13:30.703Z,95012.41
2023-03-04T19:15:59.100Z,94859.56
2023-03-04T19:18:29.063Z,94830.56
2023-03-04T19:21:00.124Z,95022.03
2023-03-04T19:23:30.624Z,94945.84
2023-03-04T19:25:58.986Z,95001.16
2023-03-04T19:28:27.651Z,95010.09
2023-03-04T19:30:59.415Z,94925.91
2023-03-04T19:33:27.844Z,94941.94
2023-03-04T19:35:56.607Z,95010.66
2023-03-04T19:38:25.105Z,95002.00
2023-03-04T19:40:54.784Z,94921.25
2023-03-04T19:43:23.280Z,95003.47
2023-03-04T19:45:55.803Z,94998.59
2023-03-04T19:48:24.574Z,94944.47
2023-03-04T19:50:52.896Z,94915.22
2023-03-04T19:53:21.406Z,94959.31
2023-03-04T19:55:50.639Z,94923.69
2023-03-04T19:58:20.793Z,95014.97
2023-03-04T20:00:50.272Z,95007.41
2023-03-04T20:03:18.671Z,94942.69
2023-03-04T20:05:47.672Z,94887.06
2023-03-04T20:08:16.000Z,95007.69
2023-03-04T20:10:44.347Z,95008.38
2023-03-04T20:13:12.642Z,95006.81
2023-03-04T20:15:45.182Z,94971.31
2023-03-04T20:18:13.525Z,94968.28
2023-03-04T20:20:41.844Z,95002.72
2023-03-04T20:23:10.613Z,95008.44
2023-03-04T20:25:39.544Z,95030.91
2023-03-04T20:28:10.534Z,94987.03
2023-03-04T20:30:39.415Z,94945.59
2023-03-04T20:33:09.114Z,94899.69
2023-03-04T20:35:40.135Z,94933.66
2023-03-04T20:38:08.585Z,94980.78
2023-03-04T20:40:37.688Z,94978.38
2023-03-04T20:43:07.001Z,94974.44
2023-03-04T20:45:36.389Z,94997.31
2023-03-04T20:48:05.547Z,94896.91
2023-03-04T20:50:35.286Z,94999.63
2023-03-04T20:53:03.849Z,94949.97
2023-03-04T20:55:32.076Z,94964.94
2023-03-04T20:58:00.442Z,94984.94
2023-03-04T21:00:30.722Z,94944.94
2023-03-04T21:02:59.095Z,94987.31
2023-03-04T21:05:27.335Z,94985.34
2023-03-04T21:07:57.188Z,94982.56
2023-03-04T21:10:25.432Z,94981.06
2023-03-04T21:12:53.756Z,94976.06
2023-03-04T21:15:22.917Z,94842.84
2023-03-04T21:17:51.234Z,94978.41
2023-03-04T21:20:19.601Z,94943.59
2023-03-04T21:22:47.914Z,94921.38
2023-03-04T21:25:19.208Z,94969.28
2023-03-04T21:27:47.434Z,94956.00
2023-03-04T21:30:15.967Z,94892.88
2023-03-04T21:32:44.336Z,94970.16
2023-03-04T21:35:15.327Z,94904.03
2023-03-04T21:37:43.542Z,94946.03
2023-03-04T21:40:13.484Z,94958.63
2023-03-04T21:42:43.201Z,94955.94
2023-03-04T21:45:12.210Z,94964.78
2023-03-04T21:47:40.896Z,94924.06
2023-03-04T21:50:10.234Z,94944.88
2023-03-04T21:52:40.988Z,94874.69
2023-03-04T21:55:10.066Z,94945.59
2023-03-04T21:57:38.319Z,94929.09
2023-03-04T22:00:09.692Z,94898.13
2023-03-04T22:02:38.235Z,94948.56
2023-03-04T22:05:07.023Z,94793.72
2023-03-04T22:07:36.237Z,94787.66
2023-03-04T22:10:07.523Z,94946.91
2023-03-04T22:12:35.782Z,94941.84
2023-03-04T22:15:04.194Z,94915.25
2023-03-04T22:17:35.285Z,94942.97
2023-03-04T22:20:03.816Z,94912.41
2023-03-04T22:22:32.178Z,94814.44
2023-03-04T22:25:00.703Z,94845.13
2023-03-04T22:27:29.069Z,94937.78
2023-03-04T22:29:57.827Z,94887.06
2023-03-04T22:32:26.328Z,94865.97
2023-03-04T22:34:56.075Z,94891.50
2023-03-04T22:37:24.369Z,94930.63
2023-03-04T22:39:52.767Z,94932.22
2023-03-04T22:42:21.106Z,94934.34
2023-03-04T22:44:49.481Z,94904.19
2023-03-04T22:47:17.821Z,94727.44
2023-03-04T22:49:47.604Z,94887.94
2023-03-04T22:52:17.326Z,94921.31
2023-03-04T22:54:45.694Z,94836.25
2023-03-04T22:57:13.941Z,94900.16
2023-03-04T22:59:42.229Z,94919.09
2023-03-04T23:02:10.632Z,94891.94
2023-03-04T23:04:38.884Z,94904.56
2023-03-04T23:07:07.170Z,94916.13
2023-03-04T23:09:36.926Z,94883.41
2023-03-04T23:12:05.775Z,94830.34
2023-03-04T23:14:34.119Z,94911.03
2023-03-04T23:17:02.671Z,94907.91
2023-03-04T23:19:30.972Z,94911.34
2023-03-04T23:21:59.389Z,94900.00
2023-03-04T23:24:28.253Z,94889.16
2023-03-04T23:26:57.970Z,94841.53
2023-03-04T23:29:26.256Z,94898.66
2023-03-04T23:31:54.602Z,94812.31
2023-03-04T23:34:23.070Z,94895.25
2023-03-04T23:36:51.360Z,94905.44
2023-03-04T23:39:20.147Z,94910.03
2023-03-04T23:41:48.500Z,94779.88
2023-03-04T23:44:18.194Z,94905.50
2023-03-04T23:46:46.610Z,94856.41
2023-03-04T23:49:17.195Z,94751.75
2023-03-04T23:51:45.794Z,94883.44
2023-03-04T23:54:14.912Z,94895.00
2023-03-04T23:56:43.269Z,94866.53
2023-03-04T23:59:12.416Z,94785.13
